createdAt,value
2022-12-03T00:04:31.365Z,0
2022-12-03T00:09:31.280Z,0
2022-12-03T00:14:31.524Z,0
2022-12-03T00:19:32.239Z,0
2022-12-03T00:24:31.171Z,0
2022-12-03T00:29:31.189Z,0
2022-12-03T00:34:31.167Z,0
2022-12-03T00:39:31.174Z,0
2022-12-03T00:44:31.175Z,0
2022-12-03T00:49:31.308Z,0
2022-12-03T00:54:34.169Z,0
2022-12-03T00:59:31.215Z,0
2022-12-03T01:04:31.302Z,0
2022-12-03T01:09:31.159Z,0
2022-12-03T01:14:31.357Z,0
2022-12-03T01:19:44.969Z,0
2022-12-03T01:24:31.310Z,0
2022-12-03T01:29:31.224Z,0
2022-12-03T01:34:31.168Z,0
2022-12-03T01:39:31.141Z,0
2022-12-03T01:44:31.150Z,0
2022-12-03T01:49:31.178Z,0
2022-12-03T01:54:31.279Z,0
2022-12-03T01:59:31.202Z,0
2022-12-03T02:04:31.187Z,0
2022-12-03T02:09:31.209Z,0
2022-12-03T02:14:31.287Z,0
2022-12-03T02:19:31.221Z,0
2022-12-03T02:24:31.171Z,0
2022-12-03T02:29:31.117Z,0
2022-12-03T02:34:31.163Z,0
2022-12-03T02:39:31.121Z,0
2022-12-03T02:44:31.198Z,0
2022-12-03T02:49:31.201Z,0
2022-12-03T02:54:31.174Z,0
2022-12-03T02:59:31.162Z,0
2022-12-03T03:04:31.162Z,0
2022-12-03T03:09:31.175Z,0
2022-12-03T03:14:31.317Z,0
2022-12-03T03:19:31.170Z,0
2022-12-03T03:24:31.192Z,0
2022-12-03T03:29:31.248Z,0
2022-12-03T03:34:31.247Z,0
2022-12-03T03:39:31.161Z,0
2022-12-03T03:44:31.203Z,0
2022-12-03T03:49:31.241Z,0
2022-12-03T03:54:31.168Z,0
2022-12-03T03:59:31.195Z,0
2022-12-03T04:04:31.211Z,0
2022-12-03T04:09:31.120Z,0
2022-12-03T04:14:31.266Z,0
2022-12-03T04:19:31.165Z,0
2022-12-03T04:24:31.201Z,0
2022-12-03T04:29:31.199Z,0
2022-12-03T04:34:31.230Z,0
2022-12-03T04:39:31.148Z,0
2022-12-03T04:44:31.170Z,0
2022-12-03T04:49:31.355Z,0
2022-12-03T04:54:31.160Z,0
2022-12-03T04:59:31.186Z,0
2022-12-03T05:04:31.276Z,0
2022-12-03T05:09:31.220Z,0
2022-12-03T05:14:31.293Z,0
2022-12-03T05:19:31.300Z,0
2022-12-03T05:24:31.148Z,0
2022-12-03T05:29:31.226Z,0
2022-12-03T05:34:31.399Z,0
2022-12-03T05:39:31.151Z,0
2022-12-03T05:44:31.219Z,0
2022-12-03T05:49:31.368Z,0
2022-12-03T05:54:31.204Z,0
2022-12-03T05:59:31.178Z,0
2022-12-03T06:04:31.355Z,0
2022-12-03T06:09:31.209Z,0
2022-12-03T06:14:31.288Z,0
2022-12-03T06:19:31.359Z,0
2022-12-03T06:24:31.224Z,0
2022-12-03T06:29:31.182Z,0
2022-12-03T06:34:31.143Z,0
2022-12-03T06:39:31.155Z,0
2022-12-03T06:44:31.204Z,0
2022-12-03T06:49:31.165Z,0
2022-12-03T06:54:31.191Z,0
2022-12-03T06:59:31.144Z,0
2022-12-03T07:04:31.198Z,0
2022-12-03T07:09:31.179Z,0
2022-12-03T07:14:31.268Z,0
2022-12-03T07:19:34.358Z,0
2022-12-03T07:24:31.223Z,0
2022-12-03T07:29:31.231Z,0
2022-12-03T07:34:31.185Z,0
2022-12-03T07:39:31.277Z,0
2022-12-03T07:44:31.191Z,0
2022-12-03T07:49:31.184Z,0
2022-12-03T07:54:31.239Z,0
2022-12-03T07:59:31.201Z,0
2022-12-03T08:04:31.180Z,265
2022-12-03T08:09:31.242Z,267
2022-12-03T08:14:31.482Z,268
2022-12-03T08:19:31.210Z,266
2022-12-03T08:24:31.264Z,267
2022-12-03T08:29:31.300Z,267
2022-12-03T08:34:31.203Z,266
2022-12-03T08:39:31.282Z,266
2022-12-03T08:44:31.243Z,267
2022-12-03T08:49:31.272Z,269
2022-12-03T08:54:31.305Z,265
2022-12-03T08:59:31.228Z,269
2022-12-03T09:04:31.313Z,268
2022-12-03T09:09:31.213Z,269
2022-12-03T09:14:31.257Z,269
2022-12-03T09:19:31.297Z,269
2022-12-03T09:24:31.391Z,268
2022-12-03T09:29:31.232Z,267
2022-12-03T09:34:31.261Z,269
2022-12-03T09:39:31.362Z,270
2022-12-03T09:44:31.212Z,271
2022-12-03T09:49:31.268Z,272
2022-12-03T09:54:31.228Z,270
2022-12-03T09:59:31.216Z,271
2022-12-03T10:04:31.254Z,272
2022-12-03T10:09:31.253Z,276
2022-12-03T10:14:31.332Z,276
2022-12-03T10:19:32.222Z,276
2022-12-03T10:24:31.220Z,272
2022-12-03T10:29:34.787Z,272
2022-12-03T10:34:31.255Z,271
2022-12-03T10:39:31.198Z,269
2022-12-03T10:44:31.343Z,271
2022-12-03T10:49:31.328Z,272
2022-12-03T10:54:31.250Z,270
2022-12-03T10:59:31.261Z,271
2022-12-03T11:04:31.264Z,272
2022-12-03T11:09:31.276Z,273
2022-12-03T11:14:31.296Z,273
2022-12-03T11:19:31.217Z,275
2022-12-03T11:24:31.236Z,273
2022-12-03T11:29:31.257Z,272
2022-12-03T11:34:31.221Z,271
2022-12-03T11:39:31.239Z,271
2022-12-03T11:44:31.271Z,272
2022-12-03T11:49:31.209Z,271
2022-12-03T11:54:31.299Z,274
2022-12-03T11:59:31.303Z,267
2022-12-03T12:04:31.495Z,269
2022-12-03T12:09:31.229Z,273
2022-12-03T12:14:31.351Z,272
2022-12-03T12:19:31.400Z,268
2022-12-03T12:24:31.349Z,269
2022-12-03T12:29:31.281Z,271
2022-12-03T12:34:31.257Z,272
2022-12-03T12:39:31.246Z,271
2022-12-03T12:44:31.223Z,271
2022-12-03T12:49:31.507Z,270
2022-12-03T12:54:31.314Z,269
2022-12-03T12:59:31.279Z,270
2022-12-03T13:04:31.259Z,270
2022-12-03T13:09:31.294Z,273
2022-12-03T13:14:31.389Z,273
2022-12-03T13:19:31.498Z,271
2022-12-03T13:24:31.293Z,268
2022-12-03T13:29:31.425Z,267
2022-12-03T13:34:31.322Z,267
2022-12-03T13:39:31.598Z,266
2022-12-03T13:44:31.227Z,266
2022-12-03T13:49:31.220Z,266
2022-12-03T13:54:31.292Z,265
2022-12-03T13:59:31.195Z,0
2022-12-03T14:04:31.352Z,0
2022-12-03T14:09:31.288Z,265
2022-12-03T14:14:32.292Z,0
2022-12-03T14:19:31.338Z,0
2022-12-03T14:24:31.564Z,0
2022-12-03T14:29:31.305Z,265
2022-12-03T14:34:31.298Z,0
2022-12-03T14:39:32.573Z,0
2022-12-03T14:44:31.353Z,0
2022-12-03T14:49:31.387Z,0
2022-12-03T14:54:31.464Z,0
2022-12-03T14:59:37.238Z,0
2022-12-03T15:04:31.352Z,0
2022-12-03T15:09:31.361Z,0
2022-12-03T15:14:31.365Z,0
2022-12-03T15:19:31.283Z,0
2022-12-03T15:24:31.334Z,0
2022-12-03T15:29:31.334Z,0
2022-12-03T15:34:31.345Z,0
2022-12-03T15:39:31.307Z,0
2022-12-03T15:44:31.312Z,0
2022-12-03T15:49:31.292Z,0
2022-12-03T15:54:31.355Z,0
2022-12-03T15:59:31.319Z,0
2022-12-03T16:04:31.341Z,0
2022-12-03T16:09:31.323Z,0
2022-12-03T16:14:31.340Z,0
2022-12-03T16:19:31.332Z,0
2022-12-03T16:24:31.289Z,0
2022-12-03T16:29:31.398Z,0
2022-12-03T16:34:31.266Z,0
2022-12-03T16:39:31.533Z,0
2022-12-03T16:44:31.291Z,0
2022-12-03T16:49:31.281Z,0
2022-12-03T16:54:31.254Z,0
2022-12-03T16:59:31.359Z,0
2022-12-03T17:04:31.468Z,0
2022-12-03T17:09:31.253Z,0
2022-12-03T17:14:34.410Z,0
2022-12-03T17:19:31.221Z,0
2022-12-03T17:24:31.233Z,0
2022-12-03T17:29:31.291Z,0
2022-12-03T17:34:31.220Z,0
2022-12-03T17:39:31.238Z,0
2022-12-03T17:44:31.305Z,0
2022-12-03T17:49:32.255Z,0
2022-12-03T17:54:55.537Z,0
2022-12-03T17:59:31.241Z,0
2022-12-03T18:04:31.416Z,0
2022-12-03T18:09:31.458Z,0
2022-12-03T18:14:31.326Z,0
2022-12-03T18:19:31.248Z,0
2022-12-03T18:24:31.258Z,0
2022-12-03T18:29:31.306Z,0
2022-12-03T18:34:31.265Z,0
2022-12-03T18:39:31.244Z,0
2022-12-03T18:49:31.278Z,0
2022-12-03T18:54:31.331Z,0
2022-12-03T18:59:31.285Z,0
2022-12-03T19:04:31.306Z,0
2022-12-03T19:09:31.660Z,0
2022-12-03T19:14:32.004Z,0
2022-12-03T19:19:31.952Z,0
2022-12-03T19:34:31.325Z,0
2022-12-03T19:39:31.375Z,0
2022-12-03T19:44:31.289Z,0
2022-12-03T19:49:31.328Z,0
2022-12-03T19:54:31.272Z,0
2022-12-03T19:59:31.245Z,0
2022-12-03T20:04:31.255Z,0
2022-12-03T20:09:31.298Z,0
2022-12-03T20:14:31.263Z,0
2022-12-03T20:19:31.248Z,0
2022-12-03T20:24:31.256Z,0
2022-12-03T20:29:31.353Z,0
2022-12-03T20:34:31.263Z,0
2022-12-03T20:39:31.355Z,0
2022-12-03T20:44:31.294Z,0
2022-12-03T20:49:31.345Z,0
2022-12-03T20:54:31.252Z,0
2022-12-03T20:59:31.314Z,0
2022-12-03T21:04:31.268Z,0
2022-12-03T21:09:31.463Z,0
2022-12-03T21:14:31.287Z,0
2022-12-03T21:19:31.289Z,0
2022-12-03T21:24:31.389Z,0
2022-12-03T21:29:31.325Z,0
2022-12-03T21:35:12.415Z,0
2022-12-03T21:39:31.288Z,0
2022-12-03T21:44:31.296Z,0
2022-12-03T21:49:31.326Z,0
2022-12-03T21:54:31.311Z,0
2022-12-03T21:59:31.332Z,0
2022-12-03T22:04:31.359Z,0
2022-12-03T22:09:31.327Z,0
2022-12-03T22:14:31.354Z,0
2022-12-03T22:19:31.347Z,0
2022-12-03T22:24:31.441Z,0
2022-12-03T22:29:31.340Z,0
2022-12-03T22:34:51.324Z,0
2022-12-03T22:39:31.351Z,0
2022-12-03T22:44:31.348Z,0
2022-12-03T22:49:31.434Z,0
2022-12-03T22:54:31.309Z,0
2022-12-03T22:59:31.306Z,0
2022-12-03T23:04:31.399Z,0
2022-12-03T23:09:31.312Z,0
2022-12-03T23:14:31.322Z,0
2022-12-03T23:19:31.276Z,0
2022-12-03T23:24:31.313Z,0
2022-12-03T23:29:31.272Z,0
2022-12-03T23:34:46.125Z,0
2022-12-03T23:39:31.344Z,0
2022-12-03T23:44:31.355Z,0
2022-12-03T23:49:31.302Z,0
2022-12-03T23:54:31.358Z,0
2022-12-03T23:59:31.280Z,0
